Time;durP1;ratioP1;P1;durP2;ratioP2;P2;SDS_P1;SDS_P2;PMS_P1;PMS_P2;Temp;Humidity;BMP_temperature;BMP_pressure;BME280_temperature;BME280_humidity;BME280_pressure;Samples;Min_cycle;Max_cycle;Signal;HPM_P1;HPM_P2
2022/01/20 00:00:55;1162006.00;3.87;2021.68;114857.00;0.38;199.21;;;;;7.70;1.00;;;;;;2244388;61;1916;-88
2022/01/20 00:03:24;835889.00;2.79;1443.79;0.00;0.00;0.62;;;;;7.90;1.00;;;;;;2244835;61;1615;-89
2022/01/20 00:09:08;636711.00;2.12;1097.65;0.00;0.00;0.62;;;;;8.10;1.00;;;;;;2290065;60;1208;-88
2022/01/20 00:28:11;508575.00;1.70;876.59;0.00;0.00;0.62;;;;;7.50;1.00;;;;;;2283774;60;1988;-89
2022/01/20 00:30:44;617854.00;2.06;1065.06;0.00;0.00;0.62;;;;;7.40;1.00;;;;;;2283755;60;1241;-89
2022/01/20 00:33:32;961185.00;3.20;1663.84;73131.00;0.24;127.17;;;;;7.20;1.00;;;;;;2283736;61;1480;-87
2022/01/20 00:38:44;277218.00;0.92;478.75;0.00;0.00;0.62;;;;;7.20;1.00;;;;;;2283831;60;678;-89
2022/01/20 00:41:15;669051.00;2.23;1153.61;0.00;0.00;0.62;;;;;7.40;1.00;;;;;;2283747;61;1073;-88
2022/01/20 00:43:42;621233.00;2.07;1070.90;0.00;0.00;0.62;;;;;7.60;1.00;;;;;;2283711;60;1390;-88
2022/01/20 00:46:09;747183.00;2.49;1289.16;0.00;0.00;0.62;;;;;7.90;1.00;;;;;;2283699;60;1619;-88
2022/01/20 00:48:36;765796.00;2.55;1321.54;0.00;0.00;0.62;;;;;7.90;1.00;;;;;;2276530;61;1940;-89
2022/01/20 00:51:03;516496.00;1.72;890.23;0.00;0.00;0.62;;;;;7.70;1.00;;;;;;2283730;60;984;-89
2022/01/20 00:53:30;315559.00;1.05;544.66;0.00;0.00;0.62;;;;;7.80;1.00;;;;;;2283669;61;1271;-87
2022/01/20 00:55:57;696532.00;2.32;1201.23;0.00;0.00;0.62;;;;;7.50;1.00;;;;;;2283757;60;1124;-89
2022/01/20 00:58:26;634707.00;2.12;1094.19;0.00;0.00;0.62;;;;;7.80;1.00;;;;;;2283151;60;1015;-87
2022/01/20 01:00:53;858935.00;2.86;1484.11;0.00;0.00;0.62;;;;;7.40;1.00;;;;;;2283142;60;1045;-89
2022/01/20 01:03:21;842248.00;2.81;1454.91;4341.00;0.01;8.14;;;;;7.30;1.00;;;;;;2283103;60;1407;-89
2022/01/20 01:06:01;722270.00;2.41;1245.88;0.00;0.00;0.62;;;;;7.30;1.00;;;;;;2276398;61;1075;-89
2022/01/20 01:08:28;560200.00;1.87;965.55;0.00;0.00;0.62;;;;;7.00;1.00;;;;;;2283105;60;1997;-89
2022/01/20 01:10:55;892434.00;2.97;1542.84;0.00;0.00;0.62;;;;;7.00;1.00;;;;;;2282908;60;1013;-89
2022/01/20 01:13:24;578314.00;1.93;996.79;0.00;0.00;0.62;;;;;7.50;1.00;;;;;;2283105;61;1402;-89
2022/01/20 01:15:53;470776.00;1.57;811.52;0.00;0.00;0.62;;;;;7.80;1.00;;;;;;2283176;60;1757;-89
2022/01/20 01:21:13;330721.00;1.10;570.73;0.00;0.00;0.62;;;;;8.40;1.00;;;;;;2280978;61;618;-89
2022/01/20 01:23:42;652596.00;2.18;1125.13;2839.00;0.01;5.54;;;;;8.50;1.00;;;;;;2280852;61;1324;-88
2022/01/20 01:26:12;862868.00;2.88;1491.00;244.00;0.00;1.04;;;;;8.20;1.00;;;;;;2280914;61;915;-89
2022/01/20 01:28:39;675853.00;2.25;1165.39;0.00;0.00;0.62;;;;;8.20;1.00;;;;;;2280836;61;2002;-89
2022/01/20 01:31:29;615321.00;2.05;1060.68;0.00;0.00;0.62;;;;;8.00;1.00;;;;;;2280846;61;1053;-88
2022/01/20 01:33:59;140209664.00;467.37;111708600.00;0.00;0.00;0.62;;;;;8.00;1.00;;;;;;2280837;61;1518;-88
2022/01/20 01:36:28;714227.00;2.38;1231.92;0.00;0.00;0.62;;;;;7.80;1.00;;;;;;2280817;61;1187;-89
2022/01/20 01:38:56;622833.00;2.08;1073.66;0.00;0.00;0.62;;;;;7.80;1.00;;;;;;2280793;61;1756;-88
2022/01/20 01:41:30;826917.00;2.76;1428.11;12595.00;0.04;22.44;;;;;7.80;1.00;;;;;;2280829;61;1188;-90
2022/01/20 01:44:01;623285.00;2.08;1074.44;0.00;0.00;0.62;;;;;7.80;1.00;;;;;;2280886;61;1485;-88
2022/01/20 01:46:30;645520.00;2.15;1112.89;0.00;0.00;0.62;;;;;7.90;1.00;;;;;;2280924;61;1057;-88
2022/01/20 01:48:57;569741.00;1.90;982.00;0.00;0.00;0.62;;;;;8.10;1.00;;;;;;2280768;61;2041;-88
2022/01/20 01:51:25;643662.00;2.15;1109.67;0.00;0.00;0.62;;;;;7.90;1.00;;;;;;2280819;61;1121;-88
2022/01/20 01:53:52;627361.00;2.09;1081.49;0.00;0.00;0.62;;;;;8.10;1.00;;;;;;2280832;61;1383;-88
2022/01/20 01:56:20;552790.00;1.84;952.77;0.00;0.00;0.62;;;;;8.20;1.00;;;;;;2280873;61;1011;-86
2022/01/20 01:58:47;802081.00;2.67;1384.75;20567.00;0.07;36.25;;;;;8.30;1.00;;;;;;2280840;61;944;-88
2022/01/20 02:01:14;567616.00;1.89;978.33;0.00;0.00;0.62;;;;;8.20;1.00;;;;;;2280761;61;1029;-88
2022/01/20 02:03:45;471610.00;1.57;812.96;0.00;0.00;0.62;;;;;8.20;1.00;;;;;;2280736;61;1305;-87
2022/01/20 02:06:41;660775.00;2.20;1139.28;0.00;0.00;0.62;;;;;8.10;1.00;;;;;;2280759;61;1063;-86
2022/01/20 02:09:23;355624.00;1.19;613.53;0.00;0.00;0.62;;;;;8.10;1.00;;;;;;2280664;61;2004;-88
2022/01/20 02:20:14;134515744.00;448.39;98631848.00;0.00;0.00;0.62;;;;;8.40;1.00;;;;;;2271988;61;713;-89
2022/01/20 02:22:41;446971.00;1.49;770.57;0.00;0.00;0.62;;;;;8.80;1.00;;;;;;2261880;61;1415;-87
2022/01/20 02:25:18;665757.00;2.22;1147.91;0.00;0.00;0.62;;;;;8.50;1.00;;;;;;2272033;61;1073;-88
2022/01/20 02:27:45;406665.00;1.36;701.26;0.00;0.00;0.62;;;;;8.20;1.00;;;;;;2271935;61;1925;-89
2022/01/20 02:30:14;657891.00;2.19;1134.29;35400.00;0.12;61.93;;;;;8.40;1.00;;;;;;2271831;61;1176;-88
2022/01/20 02:32:41;510258.00;1.70;879.49;0.00;0.00;0.62;;;;;8.40;1.00;;;;;;2271936;61;1408;-88
2022/01/20 02:35:10;583348.00;1.94;1005.48;0.00;0.00;0.62;;;;;8.40;1.00;;;;;;2259928;61;1136;-88
2022/01/20 02:37:39;587932.00;1.96;1013.39;0.00;0.00;0.62;;;;;8.10;1.00;;;;;;2249944;61;1007;-88
2022/01/20 02:40:31;694126.00;2.31;1197.05;11219.00;0.04;20.06;;;;;8.20;1.00;;;;;;2251931;61;1047;-87
2022/01/20 02:45:53;474912.00;1.58;818.64;0.00;0.00;0.62;;;;;8.30;1.00;;;;;;2240061;62;1412;-87
2022/01/20 02:48:20;776275.00;2.59;1339.78;0.00;0.00;0.62;;;;;7.90;1.00;;;;;;2249648;61;1993;-88
2022/01/20 02:50:47;630149.00;2.10;1086.31;0.00;0.00;0.62;;;;;7.90;1.00;;;;;;2256409;61;1092;-88
2022/01/20 02:53:16;1021230.00;3.40;1770.11;0.00;0.00;0.62;;;;;7.80;1.00;;;;;;2270265;61;1322;-88
2022/01/20 02:55:42;561503.00;1.87;967.79;0.00;0.00;0.62;;;;;8.10;1.00;;;;;;2263857;61;1024;-87
2022/01/20 02:58:10;646519.00;2.16;1114.61;0.00;0.00;0.62;;;;;8.20;1.00;;;;;;2267963;61;1095;-87
2022/01/20 03:00:37;725652.00;2.42;1251.75;0.00;0.00;0.62;;;;;8.40;1.00;;;;;;2271967;61;1138;-88
2022/01/20 03:03:05;632081.00;2.11;1089.65;0.00;0.00;0.62;;;;;8.20;1.00;;;;;;2271924;61;1320;-87
2022/01/20 03:05:33;545883.00;1.82;940.86;0.00;0.00;0.62;;;;;8.00;1.00;;;;;;2263810;61;1058;-86
2022/01/20 03:08:00;550555.00;1.84;948.92;0.00;0.00;0.62;;;;;8.10;1.00;;;;;;2263776;61;1926;-87
2022/01/20 03:10:29;587148.00;1.96;1012.03;0.00;0.00;0.62;;;;;8.00;1.00;;;;;;2263879;61;1157;-87
2022/01/20 03:12:56;723302.00;2.41;1247.67;2298.00;0.01;4.60;;;;;7.90;1.00;;;;;;2265460;61;1315;-87
2022/01/20 03:15:23;723961.00;2.41;1248.81;0.00;0.00;0.62;;;;;7.80;1.00;;;;;;2275995;61;1086;-87
2022/01/20 03:17:50;685655.00;2.29;1182.37;0.00;0.00;0.62;;;;;8.10;1.00;;;;;;2275861;61;1129;-89
2022/01/20 03:20:17;486836.00;1.62;839.16;0.00;0.00;0.62;;;;;8.00;1.00;;;;;;2275853;61;1179;-88
2022/01/20 03:22:48;470153.00;1.57;810.45;0.00;0.00;0.62;;;;;8.10;1.00;;;;;;2266352;61;1454;-88
2022/01/20 03:25:15;730832.00;2.44;1260.75;0.00;0.00;0.62;;;;;8.40;1.00;;;;;;2280529;61;1033;-88
2022/01/20 03:27:43;525429.00;1.75;905.62;0.00;0.00;0.62;;;;;8.50;1.00;;;;;;2280399;61;1913;-88
2022/01/20 03:30:12;351017.00;1.17;605.61;0.00;0.00;0.62;;;;;8.80;1.00;;;;;;2280401;61;1096;-89
2022/01/20 03:32:39;570853.00;1.90;983.92;0.00;0.00;0.62;;;;;8.80;1.00;;;;;;2280333;61;1548;-87
2022/01/20 03:35:07;470529.00;1.57;811.10;0.00;0.00;0.62;;;;;8.50;1.00;;;;;;2280447;61;1146;-88
2022/01/20 03:37:34;654105.00;2.18;1127.74;0.00;0.00;0.62;;;;;8.80;1.00;;;;;;2280403;61;1125;-88
2022/01/20 03:40:01;749923.00;2.50;1293.92;0.00;0.00;0.62;;;;;8.70;1.00;;;;;;2280393;61;1074;-87
2022/01/20 03:42:28;749940.00;2.50;1293.95;0.00;0.00;0.62;;;;;8.10;1.00;;;;;;2280300;61;1265;-88
2022/01/20 03:44:57;614531.00;2.05;1059.32;0.00;0.00;0.62;;;;;8.20;1.00;;;;;;2280374;61;1132;-88
2022/01/20 03:47:25;476399.00;1.59;821.20;0.00;0.00;0.62;;;;;8.30;1.00;;;;;;2280460;61;1932;-87
2022/01/20 03:50:05;453020.00;1.51;780.98;0.00;0.00;0.62;;;;;7.90;1.00;;;;;;2276640;61;1034;-87
2022/01/20 03:52:32;342317.00;1.14;590.66;0.00;0.00;0.62;;;;;7.80;1.00;;;;;;2280382;61;1373;-88
2022/01/20 03:54:59;797900.00;2.66;1377.46;88694.00;0.30;154.05;;;;;7.70;1.00;;;;;;2276471;61;1143;-88
2022/01/20 03:57:27;958662.00;3.20;1659.39;69834.00;0.23;121.47;;;;;7.40;1.00;;;;;;2280414;61;1018;-88
2022/01/20 03:59:57;951296.00;3.17;1646.40;75022.00;0.25;130.44;;;;;7.20;1.00;;;;;;2280446;61;1084;-88
2022/01/20 04:02:23;670801.00;2.24;1156.64;0.00;0.00;0.62;;;;;7.40;1.00;;;;;;2280304;61;1376;-87
2022/01/20 04:04:50;965060.00;3.22;1670.69;0.00;0.00;0.62;;;;;7.00;1.00;;;;;;2280220;61;914;-88
2022/01/20 04:07:18;885418.00;2.95;1530.52;82504.00;0.28;143.36;;;;;6.60;1.00;;;;;;2275409;61;1191;-88
2022/01/20 04:09:45;864714.00;2.88;1494.23;0.00;0.00;0.62;;;;;6.50;1.00;;;;;;2275555;61;1923;-88
2022/01/20 04:12:12;636580.00;2.12;1097.43;0.00;0.00;0.62;;;;;6.90;1.00;;;;;;2263311;61;977;-88
2022/01/20 04:14:46;679708.00;2.27;1172.07;0.00;0.00;0.62;;;;;7.00;1.00;;;;;;2263316;61;1472;-88
2022/01/20 04:17:18;737897.00;2.46;1273.02;0.00;0.00;0.62;;;;;7.40;1.00;;;;;;2263627;61;1077;-88
2022/01/20 04:19:45;123400816.00;411.34;76127616.00;0.00;0.00;0.62;;;;;7.10;1.00;;;;;;2263576;61;1149;-88
2022/01/20 04:22:13;654460.00;2.18;1128.35;0.00;0.00;0.62;;;;;6.90;1.00;;;;;;2263582;61;1039;-89
2022/01/20 04:24:39;521415.00;1.74;898.70;0.00;0.00;0.62;;;;;6.80;1.00;;;;;;2265167;61;1425;-88
2022/01/20 04:27:07;954572.00;3.18;1652.18;4211.00;0.01;7.92;;;;;7.00;1.00;;;;;;2271706;61;1121;-87
2022/01/20 04:29:34;1167891.00;3.89;2032.27;19872.00;0.07;35.05;;;;;7.20;1.00;;;;;;2273357;61;2006;-88
2022/01/20 04:32:01;622513.00;2.08;1073.11;0.00;0.00;0.62;;;;;7.00;1.00;;;;;;2280380;61;1029;-88
2022/01/20 04:34:29;904129.00;3.01;1563.37;0.00;0.00;0.62;;;;;6.60;1.00;;;;;;2280280;61;1316;-87
2022/01/20 04:36:57;863105.00;2.88;1491.41;0.00;0.00;0.62;;;;;6.80;1.00;;;;;;2280414;61;1028;-88
2022/01/20 04:39:28;1038249.00;3.46;1800.33;0.00;0.00;0.62;;;;;7.10;1.00;;;;;;2280273;61;1688;-87
2022/01/20 04:41:55;875671.00;2.92;1513.43;0.00;0.00;0.62;;;;;6.80;1.00;;;;;;2280299;61;993;-88
2022/01/20 04:44:36;928180.00;3.09;1605.67;0.00;0.00;0.62;;;;;7.00;1.00;;;;;;2280234;61;1427;-88
2022/01/20 04:47:12;836103.00;2.79;1444.16;0.00;0.00;0.62;;;;;7.30;1.00;;;;;;2280172;61;1106;-88
2022/01/20 04:57:54;486760.00;1.62;839.03;0.00;0.00;0.62;;;;;7.30;1.00;;;;;;2281001;61;641;-89
2022/01/20 05:00:21;962390.00;3.21;1665.97;0.00;0.00;0.62;;;;;7.10;1.00;;;;;;2280893;61;1703;-89
2022/01/20 05:02:47;880564.00;2.94;1522.01;0.00;0.00;0.62;;;;;7.30;1.00;;;;;;2280871;61;1426;-89
2022/01/20 05:05:16;986560.00;3.29;1708.68;0.00;0.00;0.62;;;;;7.40;1.00;;;;;;2280899;61;1003;-89
2022/01/20 05:07:43;772772.00;2.58;1333.68;0.00;0.00;0.62;;;;;7.40;1.00;;;;;;2280853;61;1049;-89
2022/01/20 05:10:12;709632.00;2.37;1223.95;0.00;0.00;0.62;;;;;7.30;1.00;;;;;;2280914;61;1081;-89
2022/01/20 05:13:02;781342.00;2.60;1348.60;0.00;0.00;0.62;;;;;7.40;1.00;;;;;;2280819;61;1490;-88
2022/01/20 05:15:28;498989.00;1.66;860.08;0.00;0.00;0.62;;;;;7.40;1.00;;;;;;2276219;61;1100;-88
2022/01/20 05:17:55;740207.00;2.47;1277.03;0.00;0.00;0.62;;;;;7.20;1.00;;;;;;2276183;61;1329;-88
2022/01/20 05:20:24;932522.00;3.11;1613.31;0.00;0.00;0.62;;;;;7.00;1.00;;;;;;2276137;61;1732;-88
2022/01/20 05:22:51;894473.00;2.98;1546.41;0.00;0.00;0.62;;;;;7.10;1.00;;;;;;2276146;61;1680;-89
2022/01/20 05:25:20;711204.00;2.37;1226.67;0.00;0.00;0.62;;;;;7.10;1.00;;;;;;2264144;61;1090;-89
2022/01/20 05:27:47;788144.00;2.63;1360.45;0.00;0.00;0.62;;;;;7.40;1.00;;;;;;2264113;61;1154;-89
2022/01/20 05:30:14;669281.00;2.23;1154.01;0.00;0.00;0.62;;;;;7.50;1.00;;;;;;2264212;61;1993;-88
2022/01/20 05:32:41;811133.00;2.70;1400.55;0.00;0.00;0.62;;;;;7.70;1.00;;;;;;2265178;61;1312;-89
2022/01/20 05:35:08;749497.00;2.50;1293.18;0.00;0.00;0.62;;;;;7.60;1.00;;;;;;2272151;61;1110;-87
2022/01/20 05:37:37;1011469.00;3.37;1752.80;7461.00;0.02;13.55;;;;;7.40;1.00;;;;;;2272217;61;946;-89
2022/01/20 05:40:05;1062163.00;3.54;1842.89;0.00;0.00;0.62;;;;;7.50;1.00;;;;;;2272080;61;1073;-88
2022/01/20 05:42:32;652804.00;2.18;1125.49;0.00;0.00;0.62;;;;;7.80;1.00;;;;;;2273383;61;1390;-87
2022/01/20 05:44:59;740700.00;2.47;1277.89;0.00;0.00;0.62;;;;;8.10;1.00;;;;;;2280726;61;1023;-88
2022/01/20 05:47:29;1084359.00;3.61;1882.47;0.00;0.00;0.62;;;;;8.40;1.00;;;;;;2280705;61;1000;-88
2022/01/20 05:49:56;670741.00;2.24;1156.54;0.00;0.00;0.62;;;;;8.30;1.00;;;;;;2280757;61;2009;-87
2022/01/20 05:52:23;938515.00;3.13;1623.87;15949.00;0.05;28.25;;;;;8.30;1.00;;;;;;2276149;61;1289;-87
2022/01/20 05:54:51;686036.00;2.29;1183.03;0.00;0.00;0.62;;;;;8.30;1.00;;;;;;2266147;61;997;-88
2022/01/20 05:57:18;795448.00;2.65;1373.19;0.00;0.00;0.62;;;;;8.50;1.00;;;;;;2264039;61;1009;-88
2022/01/20 05:59:45;872449.00;2.91;1507.78;69054.00;0.23;120.13;;;;;8.10;1.00;;;;;;2264090;61;1014;-88
2022/01/20 06:02:26;1025417.00;3.42;1777.54;59697.00;0.20;103.95;;;;;8.10;1.00;;;;;;2264002;61;1129;-88
2022/01/20 06:04:53;614242.00;2.05;1058.82;0.00;0.00;0.62;;;;;8.50;1.00;;;;;;2263865;61;1053;-89
2022/01/20 06:07:20;750094.00;2.50;1294.22;63377.00;0.21;110.31;;;;;8.30;1.00;;;;;;2264005;61;1136;-87
2022/01/20 06:09:47;857012.00;2.86;1480.74;71758.00;0.24;124.80;;;;;8.30;1.00;;;;;;2265590;61;1924;-88
2022/01/20 06:12:15;871128.00;2.90;1505.47;60391.00;0.20;105.15;;;;;8.10;1.00;;;;;;2265266;61;1188;-88
2022/01/20 06:14:42;969375.00;3.23;1678.31;77821.00;0.26;135.27;;;;;7.90;1.00;;;;;;2273787;61;1257;-87
2022/01/20 06:17:09;877661.00;2.93;1516.92;60832.00;0.20;105.92;;;;;8.00;1.00;;;;;;2280613;61;1061;-89
2022/01/20 06:19:36;961222.00;3.20;1663.91;73140.00;0.24;127.19;;;;;8.40;1.00;;;;;;2280758;61;1107;-89
2022/01/20 06:22:03;834244.00;2.78;1440.91;75274.00;0.25;130.87;;;;;8.60;1.00;;;;;;2280709;61;1065;-89
2022/01/20 06:24:30;1153971.00;3.85;2007.22;72983.00;0.24;126.91;;;;;8.30;1.00;;;;;;2280583;61;1429;-88
2022/01/20 06:26:57;751625.00;2.51;1296.88;40737.00;0.14;71.16;;;;;8.40;1.00;;;;;;2280564;61;1015;-88
2022/01/20 06:29:26;754675.00;2.52;1302.19;72764.00;0.24;126.54;;;;;8.50;1.00;;;;;;2280597;61;2010;-88
2022/01/20 06:31:53;1210076.00;4.03;2108.45;63971.00;0.21;111.34;;;;;8.10;1.00;;;;;;2280629;61;1093;-87
2022/01/20 06:34:20;967505.00;3.23;1675.00;61597.00;0.21;107.24;;;;;7.80;1.00;;;;;;2273375;61;1318;-88
2022/01/20 06:36:47;1013190.00;3.38;1755.85;95112.00;0.32;165.13;;;;;7.70;1.00;;;;;;2280658;61;1038;-88
2022/01/20 06:39:14;117935744.00;393.12;66446200.00;76095.00;0.25;132.29;;;;;7.80;1.00;;;;;;2280568;61;879;-87
2022/01/20 06:41:41;932860.00;3.11;1613.91;83020.00;0.28;144.25;;;;;8.10;1.00;;;;;;2280537;61;1149;-88
2022/01/20 06:44:08;1028666.00;3.43;1783.31;69968.00;0.23;121.71;;;;;8.50;1.00;;;;;;2280505;61;1355;-88
2022/01/20 06:46:36;1065450.00;3.55;1848.75;74159.00;0.25;128.95;;;;;8.60;1.00;;;;;;2280416;61;1129;-88
2022/01/20 06:49:04;853343.00;2.84;1474.32;75968.00;0.25;132.07;;;;;8.60;1.00;;;;;;2275815;61;2008;-88
2022/01/20 06:51:31;862441.00;2.87;1490.25;51154.00;0.17;89.18;;;;;8.50;1.00;;;;;;2275771;61;1114;-89
2022/01/20 06:53:58;810869.00;2.70;1400.09;71748.00;0.24;124.78;;;;;8.50;1.00;;;;;;2272332;61;1295;-89
2022/01/20 06:56:25;980997.00;3.27;1698.84;65172.00;0.22;113.42;;;;;9.00;1.00;;;;;;2275930;61;1359;-89
2022/01/20 06:58:52;976160.00;3.25;1690.29;56653.00;0.19;98.69;;;;;9.40;1.00;;;;;;2275792;61;1145;-89
2022/01/20 07:01:20;798932.00;2.66;1379.26;60004.00;0.20;104.48;;;;;9.30;1.00;;;;;;2272515;61;960;-89
2022/01/20 07:03:49;813235.00;2.71;1404.22;65046.00;0.22;113.20;;;;;9.30;1.00;;;;;;2275796;61;1305;-89
2022/01/20 07:06:16;867174.00;2.89;1498.54;70056.00;0.23;121.86;;;;;9.40;1.00;;;;;;2276424;61;1098;-89
2022/01/20 07:08:42;1012466.00;3.37;1754.56;67693.00;0.23;117.77;;;;;9.50;1.00;;;;;;2280384;61;1918;-89
2022/01/20 07:11:09;1206740.00;4.02;2102.41;77706.00;0.26;135.07;;;;;9.30;1.00;;;;;;2276372;61;977;-89
2022/01/20 07:13:36;828554.00;2.76;1430.97;69068.00;0.23;120.15;;;;;9.20;1.00;;;;;;2280492;61;1409;-89
2022/01/20 07:16:03;844465.00;2.81;1458.78;67326.00;0.22;117.14;;;;;8.90;1.00;;;;;;2280380;61;1016;-88
2022/01/20 07:18:31;1033430.00;3.44;1791.77;83632.00;0.28;145.31;;;;;8.80;1.00;;;;;;2280433;61;1081;-87
2022/01/20 07:20:59;719880.00;2.40;1241.73;82746.00;0.28;143.78;;;;;9.00;1.00;;;;;;2280473;61;1055;-87
2022/01/20 07:23:26;771439.00;2.57;1331.36;62761.00;0.21;109.25;;;;;9.20;1.00;;;;;;2280391;61;1345;-87
2022/01/20 07:25:53;942598.00;3.14;1631.06;78693.00;0.26;136.78;;;;;9.20;1.00;;;;;;2280417;61;1527;-86
2022/01/20 07:28:20;819573.00;2.73;1415.28;85535.00;0.29;148.60;;;;;9.20;1.00;;;;;;2280488;61;1032;-88
2022/01/20 07:30:48;886893.00;2.96;1533.11;66567.00;0.22;115.83;;;;;9.30;1.00;;;;;;2280486;61;2010;-87
2022/01/20 07:33:15;813173.00;2.71;1404.11;76853.00;0.26;133.60;;;;;9.10;1.00;;;;;;2280442;61;1455;-89
2022/01/20 07:35:43;826874.00;2.76;1428.03;69566.00;0.23;121.01;;;;;8.80;1.00;;;;;;2280433;61;1144;-88
2022/01/20 07:38:11;684751.00;2.28;1180.80;57392.00;0.19;99.97;;;;;8.60;1.00;;;;;;2280457;61;1116;-85
2022/01/20 07:40:38;624224.00;2.08;1076.07;53203.00;0.18;92.73;;;;;8.50;1.00;;;;;;2280378;61;1148;-87
2022/01/20 07:43:05;691644.00;2.31;1192.75;58360.00;0.19;101.64;;;;;8.70;1.00;;;;;;2280370;61;1381;-88
2022/01/20 07:45:32;702530.00;2.34;1211.63;81923.00;0.27;142.36;;;;;8.70;1.00;;;;;;2280468;61;1084;-88
2022/01/20 07:48:00;615084.00;2.05;1060.27;73004.00;0.24;126.95;;;;;8.80;1.00;;;;;;2280370;61;984;-88
2022/01/20 07:50:27;644099.00;2.15;1110.43;28522.00;0.10;50.02;;;;;8.80;1.00;;;;;;2280385;61;1915;-87
2022/01/20 07:52:54;872833.00;2.91;1508.45;83995.00;0.28;145.94;;;;;8.80;1.00;;;;;;2275638;61;1375;-87
2022/01/20 07:55:23;748368.00;2.49;1291.22;70087.00;0.23;121.91;;;;;8.80;1.00;;;;;;2275644;61;1596;-89
2022/01/20 07:57:49;721526.00;2.41;1244.59;70172.00;0.23;122.06;;;;;9.00;1.00;;;;;;2275672;61;1128;-89
2022/01/20 08:00:17;833182.00;2.78;1439.06;85430.00;0.28;148.42;;;;;9.20;1.00;;;;;;2275699;61;1169;-88
2022/01/20 08:02:44;766967.00;2.56;1323.57;93411.00;0.31;162.20;;;;;9.20;1.00;;;;;;2275697;61;1657;-87
2022/01/20 08:05:11;876328.00;2.92;1514.58;66845.00;0.22;116.31;;;;;8.90;1.00;;;;;;2275766;61;1020;-88
2022/01/20 08:07:38;785829.00;2.62;1356.42;57631.00;0.19;100.38;;;;;8.70;1.00;;;;;;2275806;61;1149;-87
2022/01/20 08:10:06;686515.00;2.29;1183.86;66930.00;0.22;116.46;;;;;8.80;1.00;;;;;;2276355;61;1997;-87
2022/01/20 08:12:37;654789.00;2.18;1128.92;66413.00;0.22;115.56;;;;;8.70;1.00;;;;;;2280325;61;1290;-87
2022/01/20 08:15:09;811504.00;2.71;1401.19;70715.00;0.24;123.00;;;;;8.30;1.00;;;;;;2280366;61;1080;-88
2022/01/20 08:17:37;743391.00;2.48;1282.57;42373.00;0.14;73.99;;;;;8.40;1.00;;;;;;2280308;61;1276;-88
2022/01/20 08:20:04;1264739.00;4.22;2207.72;71182.00;0.24;123.80;;;;;8.50;1.00;;;;;;2280284;61;926;-87
2022/01/20 08:22:34;860421.00;2.87;1486.71;68058.00;0.23;118.40;;;;;8.20;1.00;;;;;;2280274;61;1379;-88
2022/01/20 08:25:01;1002734.00;3.34;1737.31;94857.00;0.32;164.69;;;;;7.80;1.00;;;;;;2276434;61;1019;-87
2022/01/20 08:27:28;1167854.00;3.89;2032.21;65605.00;0.22;114.17;;;;;7.90;1.00;;;;;;2280320;61;1631;-87
2022/01/20 08:29:56;922145.00;3.07;1595.05;71544.00;0.24;124.43;;;;;7.70;1.00;;;;;;2280790;61;1917;-88
2022/01/20 08:32:23;913838.00;3.05;1580.44;45086.00;0.15;78.69;;;;;7.70;1.00;;;;;;2281045;61;1319;-88
2022/01/20 08:34:50;117845808.00;392.82;66294180.00;67452.00;0.22;117.36;;;;;8.10;1.00;;;;;;2281009;61;1152;-89
2022/01/20 08:37:17;894919.00;2.98;1547.20;53143.00;0.18;92.62;;;;;8.60;1.00;;;;;;2281067;61;1100;-87
2022/01/20 08:39:45;924545.00;3.08;1599.27;85247.00;0.28;148.10;;;;;8.80;1.00;;;;;;2280995;61;1057;-88
2022/01/20 08:42:12;838402.00;2.79;1448.18;68308.00;0.23;118.84;;;;;8.90;1.00;;;;;;2280974;61;1279;-87
2022/01/20 08:44:40;745906.00;2.49;1286.94;52232.00;0.17;91.05;;;;;8.90;1.00;;;;;;2281047;61;1391;-88
2022/01/20 08:47:16;699182.00;2.33;1205.82;72905.00;0.24;126.78;;;;;9.20;1.00;;;;;;2280844;61;1534;-87
2022/01/20 08:49:43;962675.00;3.21;1666.47;52679.00;0.18;91.82;;;;;9.70;1.00;;;;;;2277091;61;1919;-88
2022/01/20 08:52:10;883817.00;2.95;1527.71;91912.00;0.31;159.61;;;;;10.00;1.00;;;;;;2281004;61;885;-88
2022/01/20 08:54:37;893326.00;2.98;1544.40;69645.00;0.23;121.15;;;;;10.00;1.00;;;;;;2277096;61;1500;-88
2022/01/20 08:57:04;922441.00;3.07;1595.57;75785.00;0.25;131.76;;;;;9.80;1.00;;;;;;2280932;61;1065;-88
2022/01/20 08:59:31;1068036.00;3.56;1853.35;63267.00;0.21;110.12;;;;;9.30;1.00;;;;;;2279869;61;1004;-87
2022/01/20 09:01:58;897925.00;2.99;1552.48;74501.00;0.25;129.54;;;;;8.80;1.00;;;;;;2279920;61;1087;-88
2022/01/20 09:04:27;1027218.00;3.42;1780.74;49804.00;0.17;86.85;;;;;8.50;1.00;;;;;;2279677;61;1368;-88
2022/01/20 09:06:54;786442.00;2.62;1357.49;98116.00;0.33;170.32;;;;;8.70;1.00;;;;;;2279878;61;1140;-86
2022/01/20 09:09:22;718765.00;2.40;1239.79;46982.00;0.16;81.97;;;;;8.30;1.00;;;;;;2280177;61;1916;-87
2022/01/20 09:12:04;1130541.00;3.77;1965.13;52361.00;0.17;91.27;;;;;8.20;1.00;;;;;;2280424;61;1102;-87
2022/01/20 15:55:40;927972.00;3.09;1605.30;71669.00;0.24;124.64;;;;;9.50;1.00;;;;;;2285359;61;1671;-89
2022/01/20 15:58:07;800206.00;2.67;1381.48;58193.00;0.19;101.35;;;;;8.90;1.00;;;;;;2283703;61;1044;-89
2022/01/20 16:00:34;870461.00;2.90;1504.30;65168.00;0.22;113.41;;;;;8.20;1.00;;;;;;2283792;61;1144;-89
2022/01/20 16:03:01;727353.00;2.42;1254.70;67740.00;0.23;117.85;;;;;7.80;1.00;;;;;;2283882;60;1324;-89
2022/01/20 16:05:28;1007887.00;3.36;1746.45;60508.00;0.20;105.35;;;;;7.70;1.00;;;;;;2283782;61;1133;-90
2022/01/20 16:07:55;1041089.00;3.47;1805.38;167136.00;0.56;289.33;;;;;7.30;1.00;;;;;;2283795;61;1048;-90
2022/01/20 16:10:22;1051178.00;3.50;1823.33;47417.00;0.16;82.72;;;;;7.10;1.00;;;;;;2283779;61;1989;-90
2022/01/20 16:12:51;768982.00;2.56;1327.08;68496.00;0.23;119.16;;;;;7.40;1.00;;;;;;2283944;61;1482;-89
2022/01/20 16:15:18;881980.00;2.94;1524.49;110769.00;0.37;192.16;;;;;7.80;1.00;;;;;;2283473;61;1159;-89
2022/01/20 16:17:45;800722.00;2.67;1382.38;49569.00;0.17;86.44;;;;;8.50;1.00;;;;;;2283147;61;1137;-88
2022/01/20 16:20:12;859509.00;2.87;1485.11;82884.00;0.28;144.02;;;;;8.50;1.00;;;;;;2283439;61;1100;-89
2022/01/20 16:22:40;665305.00;2.22;1147.12;46501.00;0.16;81.13;;;;;8.20;1.00;;;;;;2283503;61;1274;-89
2022/01/20 16:25:09;866534.00;2.89;1497.42;54885.00;0.18;95.63;;;;;7.80;1.00;;;;;;2283558;61;1219;-90
2022/01/20 16:27:36;703806.00;2.35;1213.84;72237.00;0.24;125.63;;;;;7.70;1.00;;;;;;2283488;61;1082;-90
2022/01/20 16:30:06;664874.00;2.22;1146.38;83201.00;0.28;144.57;;;;;7.60;1.00;;;;;;2283342;61;2010;-90
2022/01/20 16:32:33;802931.00;2.68;1386.24;113435.00;0.38;196.76;;;;;7.40;1.00;;;;;;2283027;60;1453;-89
2022/01/20 16:35:10;741622.00;2.47;1279.49;77196.00;0.26;134.19;;;;;7.00;1.00;;;;;;2276361;61;1176;-89
2022/01/20 16:37:49;1122758.00;3.74;1951.17;67086.00;0.22;116.72;;;;;7.10;1.00;;;;;;2283387;61;1078;-87
2022/01/20 16:40:21;1097980.00;3.66;1906.81;0.00;0.00;0.62;;;;;7.20;1.00;;;;;;2284060;61;1791;-87
2022/01/20 16:42:52;1176467.00;3.92;2047.73;13532.00;0.05;24.07;;;;;7.00;1.00;;;;;;2284093;61;1845;-88
2022/01/20 16:45:22;978811.00;3.26;1694.98;0.00;0.00;0.62;;;;;6.90;1.00;;;;;;2284112;61;1138;-89
2022/01/20 16:48:04;1177216.00;3.92;2049.08;32201.00;0.11;56.39;;;;;7.30;1.00;;;;;;2283823;61;1590;-89
2022/01/20 16:50:32;874698.00;2.92;1511.72;0.00;0.00;0.62;;;;;7.40;1.00;;;;;;2271795;61;2010;-90
2022/01/20 16:53:02;583206.00;1.94;1005.23;0.00;0.00;0.62;;;;;7.20;1.00;;;;;;2260054;61;1412;-88
2022/01/20 16:55:39;871727.00;2.91;1506.52;0.00;0.00;0.62;;;;;7.40;1.00;;;;;;2259976;61;1792;-89
2022/01/20 16:58:10;694222.00;2.31;1197.22;0.00;0.00;0.62;;;;;7.40;1.00;;;;;;2260067;61;1597;-89
2022/01/20 17:00:43;910936.00;3.04;1575.34;0.00;0.00;0.62;;;;;7.20;1.00;;;;;;2260007;61;1785;-89
2022/01/20 17:03:13;914050.00;3.05;1580.81;13178.00;0.04;23.45;;;;;7.40;1.00;;;;;;2259922;61;1698;-89
2022/01/20 17:05:46;843267.00;2.81;1456.69;41917.00;0.14;73.20;;;;;7.10;1.00;;;;;;2259950;61;1545;-89
2022/01/20 17:08:24;835416.00;2.78;1442.96;85586.00;0.29;148.69;;;;;7.10;1.00;;;;;;2260111;61;1792;-90
2022/01/20 17:10:53;902733.00;3.01;1560.92;0.00;0.00;0.62;;;;;7.00;1.00;;;;;;2259915;61;1924;-90
2022/01/20 17:13:30;1014067.00;3.38;1757.40;17043.00;0.06;30.15;;;;;6.90;1.00;;;;;;2260006;61;1894;-90